sensor_id;sensor_type;location;lat;lon;timestamp;temperature;humidity
6520;DHT22;3293;51.690;5.982;2023-07-31T00:01:35;16.20;99.90
6520;DHT22;3293;51.690;5.982;2023-07-31T00:06:35;16.20;99.90
6520;DHT22;3293;51.690;5.982;2023-07-31T00:11:35;16.20;99.90
6520;DHT22;3293;51.690;5.982;2023-07-31T00:16:35;16.20;99.90
6520;DHT22;3293;51.690;5.982;2023-07-31T00:21:35;16.20;99.90
6520;DHT22;3293;51.690;5.982;2023-07-31T00:26:35;16.20;99.90
6520;DHT22;3293;51.690;5.982;2023-07-31T00:31:35;16.30;99.90
6520;DHT22;3293;51.690;5.982;2023-07-31T00:36:35;16.30;99.90
6520;DHT22;3293;51.690;5.982;2023-07-31T00:41:35;16.30;99.90
6520;DHT22;3293;51.690;5.982;2023-07-31T00:46:35;16.30;99.90
6520;DHT22;3293;51.690;5.982;2023-07-31T00:51:35;16.30;99.90
6520;DHT22;3293;51.690;5.982;2023-07-31T00:56:35;16.20;99.90
6520;DHT22;3293;51.690;5.982;2023-07-31T01:01:35;16.20;99.90
6520;DHT22;3293;51.690;5.982;2023-07-31T01:07:01;16.20;99.90
6520;DHT22;3293;51.690;5.982;2023-07-31T01:12:03;16.20;99.90
6520;DHT22;3293;51.690;5.982;2023-07-31T01:17:04;16.20;99.90
6520;DHT22;3293;51.690;5.982;2023-07-31T01:27:14;16.20;99.90
6520;DHT22;3293;51.690;5.982;2023-07-31T01:32:18;16.20;99.90
6520;DHT22;3293;51.690;5.982;2023-07-31T01:37:19;16.20;99.90
6520;DHT22;3293;51.690;5.982;2023-07-31T01:42:19;16.20;99.90
6520;DHT22;3293;51.690;5.982;2023-07-31T01:47:18;16.20;99.90
6520;DHT22;3293;51.690;5.982;2023-07-31T01:52:18;16.20;99.90
6520;DHT22;3293;51.690;5.982;2023-07-31T01:57:18;16.20;99.90
6520;DHT22;3293;51.690;5.982;2023-07-31T02:02:19;16.20;99.90
6520;DHT22;3293;51.690;5.982;2023-07-31T02:07:20;16.20;99.90
6520;DHT22;3293;51.690;5.982;2023-07-31T02:12:20;16.20;99.90
6520;DHT22;3293;51.690;5.982;2023-07-31T02:17:21;16.10;99.90
6520;DHT22;3293;51.690;5.982;2023-07-31T02:22:21;16.20;99.90
6520;DHT22;3293;51.690;5.982;2023-07-31T02:27:22;16.20;99.90
6520;DHT22;3293;51.690;5.982;2023-07-31T02:32:24;16.20;99.90
6520;DHT22;3293;51.690;5.982;2023-07-31T02:37:25;16.10;99.90
6520;DHT22;3293;51.690;5.982;2023-07-31T02:42:27;16.10;99.90
6520;DHT22;3293;51.690;5.982;2023-07-31T02:47:27;16.10;99.90
6520;DHT22;3293;51.690;5.982;2023-07-31T02:52:27;16.00;99.90
6520;DHT22;3293;51.690;5.982;2023-07-31T02:57:28;16.00;99.90
6520;DHT22;3293;51.690;5.982;2023-07-31T03:02:28;16.00;99.90
6520;DHT22;3293;51.690;5.982;2023-07-31T03:07:28;16.00;99.90
6520;DHT22;3293;51.690;5.982;2023-07-31T03:12:29;15.90;99.90
6520;DHT22;3293;51.690;5.982;2023-07-31T03:17:29;15.90;99.90
6520;DHT22;3293;51.690;5.982;2023-07-31T03:22:29;15.90;99.90
6520;DHT22;3293;51.690;5.982;2023-07-31T03:27:29;15.90;99.90
6520;DHT22;3293;51.690;5.982;2023-07-31T03:32:29;15.90;99.90
6520;DHT22;3293;51.690;5.982;2023-07-31T03:37:30;16.00;99.90
6520;DHT22;3293;51.690;5.982;2023-07-31T03:42:30;16.00;99.90
6520;DHT22;3293;51.690;5.982;2023-07-31T03:47:30;15.90;99.90
6520;DHT22;3293;51.690;5.982;2023-07-31T03:52:30;15.90;99.90
6520;DHT22;3293;51.690;5.982;2023-07-31T03:57:30;15.90;99.90
6520;DHT22;3293;51.690;5.982;2023-07-31T04:02:32;15.90;99.90
6520;DHT22;3293;51.690;5.982;2023-07-31T04:07:33;15.90;99.90
6520;DHT22;3293;51.690;5.982;2023-07-31T04:12:33;15.90;99.90
6520;DHT22;3293;51.690;5.982;2023-07-31T04:17:33;15.90;99.90
6520;DHT22;3293;51.690;5.982;2023-07-31T04:22:33;16.00;99.90
6520;DHT22;3293;51.690;5.982;2023-07-31T04:27:33;16.00;99.90
6520;DHT22;3293;51.690;5.982;2023-07-31T04:32:33;16.10;99.90
6520;DHT22;3293;51.690;5.982;2023-07-31T04:37:35;16.20;99.90
6520;DHT22;3293;51.690;5.982;2023-07-31T04:42:35;16.20;99.90
6520;DHT22;3293;51.690;5.982;2023-07-31T04:47:35;16.20;99.90
6520;DHT22;3293;51.690;5.982;2023-07-31T04:52:34;16.20;99.90
6520;DHT22;3293;51.690;5.982;2023-07-31T04:57:34;16.20;99.90
6520;DHT22;3293;51.690;5.982;2023-07-31T05:02:34;16.20;99.90
6520;DHT22;3293;51.690;5.982;2023-07-31T05:07:34;16.20;99.90
6520;DHT22;3293;51.690;5.982;2023-07-31T05:12:34;16.30;99.90
6520;DHT22;3293;51.690;5.982;2023-07-31T05:17:34;16.40;99.90
6520;DHT22;3293;51.690;5.982;2023-07-31T05:22:34;16.50;99.90
6520;DHT22;3293;51.690;5.982;2023-07-31T05:27:34;16.50;99.90
6520;DHT22;3293;51.690;5.982;2023-07-31T05:32:34;16.50;99.90
6520;DHT22;3293;51.690;5.982;2023-07-31T05:37:34;16.60;99.90
6520;DHT22;3293;51.690;5.982;2023-07-31T05:42:34;16.60;99.90
6520;DHT22;3293;51.690;5.982;2023-07-31T05:47:35;16.60;99.90
6520;DHT22;3293;51.690;5.982;2023-07-31T05:52:35;16.60;99.90
6520;DHT22;3293;51.690;5.982;2023-07-31T05:57:35;16.50;99.90
6520;DHT22;3293;51.690;5.982;2023-07-31T06:02:36;16.40;99.90
6520;DHT22;3293;51.690;5.982;2023-07-31T06:07:36;16.40;99.90
6520;DHT22;3293;51.690;5.982;2023-07-31T06:12:36;16.50;99.90
6520;DHT22;3293;51.690;5.982;2023-07-31T06:17:36;16.60;99.90
6520;DHT22;3293;51.690;5.982;2023-07-31T06:22:36;16.60;99.90
6520;DHT22;3293;51.690;5.982;2023-07-31T06:27:36;16.50;99.90
6520;DHT22;3293;51.690;5.982;2023-07-31T06:32:36;16.40;99.90
6520;DHT22;3293;51.690;5.982;2023-07-31T06:37:36;16.40;99.90
6520;DHT22;3293;51.690;5.982;2023-07-31T06:42:36;16.40;99.90
6520;DHT22;3293;51.690;5.982;2023-07-31T06:47:36;16.40;99.90
6520;DHT22;3293;51.690;5.982;2023-07-31T06:52:36;16.40;99.90
6520;DHT22;3293;51.690;5.982;2023-07-31T06:57:36;16.50;99.90
6520;DHT22;3293;51.690;5.982;2023-07-31T07:02:36;16.50;99.90
6520;DHT22;3293;51.690;5.982;2023-07-31T07:07:36;16.60;99.90
6520;DHT22;3293;51.690;5.982;2023-07-31T07:12:36;16.60;99.90
6520;DHT22;3293;51.690;5.982;2023-07-31T07:17:36;16.80;99.90
6520;DHT22;3293;51.690;5.982;2023-07-31T07:22:36;16.80;99.90
6520;DHT22;3293;51.690;5.982;2023-07-31T07:27:36;16.80;99.90
6520;DHT22;3293;51.690;5.982;2023-07-31T07:32:36;16.70;99.90
6520;DHT22;3293;51.690;5.982;2023-07-31T07:37:36;16.80;99.90
6520;DHT22;3293;51.690;5.982;2023-07-31T07:42:36;16.80;99.90
6520;DHT22;3293;51.690;5.982;2023-07-31T07:47:37;16.80;99.90
6520;DHT22;3293;51.690;5.982;2023-07-31T07:52:37;16.90;99.90
6520;DHT22;3293;51.690;5.982;2023-07-31T07:57:37;16.90;99.90
6520;DHT22;3293;51.690;5.982;2023-07-31T08:02:37;17.00;99.90
6520;DHT22;3293;51.690;5.982;2023-07-31T08:07:37;17.00;99.90
6520;DHT22;3293;51.690;5.982;2023-07-31T08:12:37;17.10;99.90
6520;DHT22;3293;51.690;5.982;2023-07-31T08:17:37;17.10;99.90
6520;DHT22;3293;51.690;5.982;2023-07-31T08:22:37;17.00;99.90
6520;DHT22;3293;51.690;5.982;2023-07-31T08:27:38;17.00;99.90
6520;DHT22;3293;51.690;5.982;2023-07-31T08:32:38;16.90;99.90
6520;DHT22;3293;51.690;5.982;2023-07-31T08:37:38;17.00;99.90
6520;DHT22;3293;51.690;5.982;2023-07-31T08:42:48;16.90;99.90
6520;DHT22;3293;51.690;5.982;2023-07-31T08:47:50;17.00;99.90
6520;DHT22;3293;51.690;5.982;2023-07-31T08:52:52;17.10;99.90
6520;DHT22;3293;51.690;5.982;2023-07-31T08:57:52;17.10;99.90
6520;DHT22;3293;51.690;5.982;2023-07-31T09:03:14;17.20;99.90
6520;DHT22;3293;51.690;5.982;2023-07-31T09:08:18;17.30;99.90
6520;DHT22;3293;51.690;5.982;2023-07-31T09:13:19;17.30;99.90
6520;DHT22;3293;51.690;5.982;2023-07-31T09:18:19;17.20;99.90
6520;DHT22;3293;51.690;5.982;2023-07-31T09:23:22;17.20;99.90
6520;DHT22;3293;51.690;5.982;2023-07-31T09:28:31;17.20;99.90
6520;DHT22;3293;51.690;5.982;2023-07-31T09:33:31;17.20;99.90
6520;DHT22;3293;51.690;5.982;2023-07-31T09:38:32;17.20;99.90
6520;DHT22;3293;51.690;5.982;2023-07-31T09:43:32;17.10;99.90
6520;DHT22;3293;51.690;5.982;2023-07-31T09:48:39;17.10;99.90
6520;DHT22;3293;51.690;5.982;2023-07-31T09:53:39;17.10;99.90
6520;DHT22;3293;51.690;5.982;2023-07-31T09:58:38;17.10;99.90
6520;DHT22;3293;51.690;5.982;2023-07-31T10:03:39;17.20;99.90
6520;DHT22;3293;51.690;5.982;2023-07-31T10:08:40;17.30;99.90
6520;DHT22;3293;51.690;5.982;2023-07-31T10:13:41;17.40;99.90
6520;DHT22;3293;51.690;5.982;2023-07-31T10:18:42;17.40;99.90
6520;DHT22;3293;51.690;5.982;2023-07-31T10:23:43;17.40;99.90
6520;DHT22;3293;51.690;5.982;2023-07-31T10:28:45;17.80;99.90
6520;DHT22;3293;51.690;5.982;2023-07-31T10:33:46;18.20;99.90
6520;DHT22;3293;51.690;5.982;2023-07-31T10:38:49;18.30;99.90
6520;DHT22;3293;51.690;5.982;2023-07-31T10:43:54;18.40;99.90
6520;DHT22;3293;51.690;5.982;2023-07-31T10:49:01;18.50;99.90
6520;DHT22;3293;51.690;5.982;2023-07-31T10:54:12;18.70;99.90
6520;DHT22;3293;51.690;5.982;2023-07-31T10:59:13;19.20;99.90
6520;DHT22;3293;51.690;5.982;2023-07-31T11:04:13;19.60;99.90
6520;DHT22;3293;51.690;5.982;2023-07-31T11:09:14;19.40;99.90
6520;DHT22;3293;51.690;5.982;2023-07-31T11:14:14;19.20;99.90
6520;DHT22;3293;51.690;5.982;2023-07-31T11:19:14;19.00;99.90
6520;DHT22;3293;51.690;5.982;2023-07-31T11:24:14;19.00;99.90
6520;DHT22;3293;51.690;5.982;2023-07-31T11:29:14;18.60;99.90
6520;DHT22;3293;51.690;5.982;2023-07-31T11:34:14;18.60;99.90
6520;DHT22;3293;51.690;5.982;2023-07-31T11:39:14;18.60;99.90
6520;DHT22;3293;51.690;5.982;2023-07-31T11:44:14;18.80;99.90
6520;DHT22;3293;51.690;5.982;2023-07-31T11:49:15;19.20;99.90
6520;DHT22;3293;51.690;5.982;2023-07-31T11:54:15;19.50;99.90
6520;DHT22;3293;51.690;5.982;2023-07-31T11:59:15;19.70;99.90
6520;DHT22;3293;51.690;5.982;2023-07-31T12:04:15;20.10;99.90
6520;DHT22;3293;51.690;5.982;2023-07-31T12:09:15;20.10;99.90
6520;DHT22;3293;51.690;5.982;2023-07-31T12:14:26;20.50;99.90
6520;DHT22;3293;51.690;5.982;2023-07-31T12:19:26;20.70;99.90
6520;DHT22;3293;51.690;5.982;2023-07-31T12:24:29;20.80;99.90
6520;DHT22;3293;51.690;5.982;2023-07-31T12:29:36;20.50;99.90
6520;DHT22;3293;51.690;5.982;2023-07-31T12:34:42;20.50;99.90
6520;DHT22;3293;51.690;5.982;2023-07-31T12:39:43;20.30;99.90
6520;DHT22;3293;51.690;5.982;2023-07-31T12:44:44;19.90;99.90
6520;DHT22;3293;51.690;5.982;2023-07-31T12:49:43;19.60;99.90
6520;DHT22;3293;51.690;5.982;2023-07-31T12:54:44;19.70;99.90
6520;DHT22;3293;51.690;5.982;2023-07-31T12:59:47;20.00;99.90
6520;DHT22;3293;51.690;5.982;2023-07-31T13:04:48;20.20;99.90
6520;DHT22;3293;51.690;5.982;2023-07-31T13:09:48;20.40;99.90
6520;DHT22;3293;51.690;5.982;2023-07-31T13:14:49;20.30;99.90
6520;DHT22;3293;51.690;5.982;2023-07-31T13:19:49;19.90;99.90
6520;DHT22;3293;51.690;5.982;2023-07-31T13:24:49;20.00;99.90
6520;DHT22;3293;51.690;5.982;2023-07-31T13:29:53;20.00;99.90
6520;DHT22;3293;51.690;5.982;2023-07-31T13:34:53;19.80;99.90
6520;DHT22;3293;51.690;5.982;2023-07-31T13:39:53;19.50;99.90
6520;DHT22;3293;51.690;5.982;2023-07-31T13:44:54;19.70;99.90
6520;DHT22;3293;51.690;5.982;2023-07-31T13:49:55;19.70;99.90
6520;DHT22;3293;51.690;5.982;2023-07-31T13:54:55;19.80;99.90
6520;DHT22;3293;51.690;5.982;2023-07-31T13:59:55;19.80;99.90
6520;DHT22;3293;51.690;5.982;2023-07-31T14:04:55;20.10;99.90
6520;DHT22;3293;51.690;5.982;2023-07-31T14:09:55;20.20;99.90
6520;DHT22;3293;51.690;5.982;2023-07-31T14:14:55;20.10;99.90
6520;DHT22;3293;51.690;5.982;2023-07-31T14:19:55;20.10;99.90
6520;DHT22;3293;51.690;5.982;2023-07-31T14:24:55;19.90;99.90
6520;DHT22;3293;51.690;5.982;2023-07-31T14:29:56;19.40;99.90
6520;DHT22;3293;51.690;5.982;2023-07-31T14:34:55;18.90;99.90
6520;DHT22;3293;51.690;5.982;2023-07-31T14:39:56;18.90;99.90
6520;DHT22;3293;51.690;5.982;2023-07-31T14:44:56;18.90;99.90
6520;DHT22;3293;51.690;5.982;2023-07-31T14:49:57;19.00;99.90
6520;DHT22;3293;51.690;5.982;2023-07-31T14:54:56;19.00;99.90
6520;DHT22;3293;51.690;5.982;2023-07-31T14:59:56;18.80;99.90
6520;DHT22;3293;51.690;5.982;2023-07-31T15:04:57;18.70;99.90
6520;DHT22;3293;51.690;5.982;2023-07-31T15:09:57;18.60;99.90
6520;DHT22;3293;51.690;5.982;2023-07-31T15:14:57;18.50;99.90
6520;DHT22;3293;51.690;5.982;2023-07-31T15:19:57;18.50;99.90
6520;DHT22;3293;51.690;5.982;2023-07-31T15:24:57;18.60;99.90
6520;DHT22;3293;51.690;5.982;2023-07-31T15:29:57;18.50;99.90
6520;DHT22;3293;51.690;5.982;2023-07-31T15:34:57;18.50;99.90
6520;DHT22;3293;51.690;5.982;2023-07-31T15:39:57;18.40;99.90
6520;DHT22;3293;51.690;5.982;2023-07-31T15:44:57;18.50;99.90
6520;DHT22;3293;51.690;5.982;2023-07-31T15:49:57;18.50;99.90
6520;DHT22;3293;51.690;5.982;2023-07-31T15:54:57;18.60;99.90
6520;DHT22;3293;51.690;5.982;2023-07-31T15:59:57;18.60;99.90
6520;DHT22;3293;51.690;5.982;2023-07-31T16:04:57;18.50;99.90
6520;DHT22;3293;51.690;5.982;2023-07-31T16:09:57;18.40;99.90
6520;DHT22;3293;51.690;5.982;2023-07-31T16:14:57;18.40;99.90
6520;DHT22;3293;51.690;5.982;2023-07-31T16:19:59;18.30;99.90
6520;DHT22;3293;51.690;5.982;2023-07-31T16:24:59;18.40;99.90
6520;DHT22;3293;51.690;5.982;2023-07-31T16:29:59;18.30;99.90
6520;DHT22;3293;51.690;5.982;2023-07-31T16:35:00;18.20;99.90
6520;DHT22;3293;51.690;5.982;2023-07-31T16:40:00;18.10;99.90
6520;DHT22;3293;51.690;5.982;2023-07-31T16:45:00;18.10;99.90
6520;DHT22;3293;51.690;5.982;2023-07-31T16:50:00;18.00;99.90
6520;DHT22;3293;51.690;5.982;2023-07-31T16:55:00;17.90;99.90
6520;DHT22;3293;51.690;5.982;2023-07-31T17:00:01;17.80;99.90
6520;DHT22;3293;51.690;5.982;2023-07-31T17:05:02;17.70;99.90
6520;DHT22;3293;51.690;5.982;2023-07-31T17:10:02;17.70;99.90
6520;DHT22;3293;51.690;5.982;2023-07-31T17:15:02;17.60;99.90
6520;DHT22;3293;51.690;5.982;2023-07-31T17:20:03;17.60;99.90
6520;DHT22;3293;51.690;5.982;2023-07-31T17:25:03;17.50;99.90
6520;DHT22;3293;51.690;5.982;2023-07-31T17:30:06;17.50;99.90
6520;DHT22;3293;51.690;5.982;2023-07-31T17:35:06;17.50;99.90
6520;DHT22;3293;51.690;5.982;2023-07-31T17:40:07;17.50;99.90
6520;DHT22;3293;51.690;5.982;2023-07-31T17:45:07;17.50;99.90
6520;DHT22;3293;51.690;5.982;2023-07-31T17:50:08;17.50;99.90
6520;DHT22;3293;51.690;5.982;2023-07-31T17:55:24;17.50;99.90
6520;DHT22;3293;51.690;5.982;2023-07-31T18:00:24;17.50;99.90
6520;DHT22;3293;51.690;5.982;2023-07-31T18:05:24;17.50;99.90
6520;DHT22;3293;51.690;5.982;2023-07-31T18:10:24;17.50;99.90
6520;DHT22;3293;51.690;5.982;2023-07-31T18:15:24;17.50;99.90
6520;DHT22;3293;51.690;5.982;2023-07-31T18:20:24;17.50;99.90
6520;DHT22;3293;51.690;5.982;2023-07-31T18:25:25;17.50;99.90
6520;DHT22;3293;51.690;5.982;2023-07-31T18:30:25;17.50;99.90
6520;DHT22;3293;51.690;5.982;2023-07-31T18:35:25;17.50;99.90
6520;DHT22;3293;51.690;5.982;2023-07-31T18:40:25;17.50;99.90
6520;DHT22;3293;51.690;5.982;2023-07-31T18:45:25;17.50;99.90
6520;DHT22;3293;51.690;5.982;2023-07-31T18:50:25;17.50;99.90
6520;DHT22;3293;51.690;5.982;2023-07-31T18:55:25;17.50;99.90
6520;DHT22;3293;51.690;5.982;2023-07-31T19:00:25;17.50;99.90
6520;DHT22;3293;51.690;5.982;2023-07-31T19:05:25;17.40;99.90
6520;DHT22;3293;51.690;5.982;2023-07-31T19:10:26;17.40;99.90
6520;DHT22;3293;51.690;5.982;2023-07-31T19:15:26;17.30;99.90
6520;DHT22;3293;51.690;5.982;2023-07-31T19:20:26;16.90;99.90
6520;DHT22;3293;51.690;5.982;2023-07-31T19:25:26;16.60;99.90
6520;DHT22;3293;51.690;5.982;2023-07-31T19:30:27;16.50;99.90
6520;DHT22;3293;51.690;5.982;2023-07-31T19:35:27;16.50;99.90
6520;DHT22;3293;51.690;5.982;2023-07-31T19:40:27;16.40;99.90
6520;DHT22;3293;51.690;5.982;2023-07-31T19:45:27;16.40;99.90
6520;DHT22;3293;51.690;5.982;2023-07-31T19:50:30;16.40;99.90
6520;DHT22;3293;51.690;5.982;2023-07-31T19:55:30;16.40;99.90
6520;DHT22;3293;51.690;5.982;2023-07-31T20:00:30;16.40;99.90
6520;DHT22;3293;51.690;5.982;2023-07-31T20:05:30;16.30;99.90
6520;DHT22;3293;51.690;5.982;2023-07-31T20:10:30;16.20;99.90
6520;DHT22;3293;51.690;5.982;2023-07-31T20:15:30;16.20;99.90
6520;DHT22;3293;51.690;5.982;2023-07-31T20:20:31;16.20;99.90
6520;DHT22;3293;51.690;5.982;2023-07-31T20:25:32;16.30;99.90
6520;DHT22;3293;51.690;5.982;2023-07-31T20:30:34;16.40;99.90
6520;DHT22;3293;51.690;5.982;2023-07-31T20:35:34;16.40;99.90
6520;DHT22;3293;51.690;5.982;2023-07-31T20:40:37;16.50;99.90
6520;DHT22;3293;51.690;5.982;2023-07-31T20:45:38;16.60;99.90
6520;DHT22;3293;51.690;5.982;2023-07-31T20:50:40;16.60;99.90
6520;DHT22;3293;51.690;5.982;2023-07-31T20:55:41;16.70;99.90
6520;DHT22;3293;51.690;5.982;2023-07-31T21:00:41;16.70;99.90
6520;DHT22;3293;51.690;5.982;2023-07-31T21:05:53;16.70;99.90
6520;DHT22;3293;51.690;5.982;2023-07-31T21:10:56;16.80;99.90
6520;DHT22;3293;51.690;5.982;2023-07-31T21:15:58;16.70;99.90
6520;DHT22;3293;51.690;5.982;2023-07-31T21:20:58;16.70;99.90
6520;DHT22;3293;51.690;5.982;2023-07-31T21:25:58;16.60;99.90
6520;DHT22;3293;51.690;5.982;2023-07-31T21:30:58;16.60;99.90
6520;DHT22;3293;51.690;5.982;2023-07-31T21:35:58;16.50;99.90
6520;DHT22;3293;51.690;5.982;2023-07-31T21:40:59;16.50;99.90
6520;DHT22;3293;51.690;5.982;2023-07-31T21:46:00;16.50;99.90
6520;DHT22;3293;51.690;5.982;2023-07-31T21:51:00;16.50;99.90
6520;DHT22;3293;51.690;5.982;2023-07-31T21:56:00;16.50;99.90
6520;DHT22;3293;51.690;5.982;2023-07-31T22:01:00;16.40;99.90
6520;DHT22;3293;51.690;5.982;2023-07-31T22:06:00;16.40;99.90
6520;DHT22;3293;51.690;5.982;2023-07-31T22:11:01;16.40;99.90
6520;DHT22;3293;51.690;5.982;2023-07-31T22:16:01;16.40;99.90
6520;DHT22;3293;51.690;5.982;2023-07-31T22:21:01;16.30;99.90
6520;DHT22;3293;51.690;5.982;2023-07-31T22:26:01;16.40;99.90
6520;DHT22;3293;51.690;5.982;2023-07-31T22:31:01;16.40;99.90
6520;DHT22;3293;51.690;5.982;2023-07-31T22:36:01;16.40;99.90
6520;DHT22;3293;51.690;5.982;2023-07-31T22:41:01;16.40;99.90
6520;DHT22;3293;51.690;5.982;2023-07-31T22:46:01;16.40;99.90
6520;DHT22;3293;51.690;5.982;2023-07-31T22:51:01;16.40;99.90
6520;DHT22;3293;51.690;5.982;2023-07-31T22:56:06;16.40;99.90
6520;DHT22;3293;51.690;5.982;2023-07-31T23:01:08;16.40;99.90
6520;DHT22;3293;51.690;5.982;2023-07-31T23:06:08;16.40;99.90
6520;DHT22;3293;51.690;5.982;2023-07-31T23:11:08;16.50;99.90
6520;DHT22;3293;51.690;5.982;2023-07-31T23:16:08;16.50;99.90
6520;DHT22;3293;51.690;5.982;2023-07-31T23:21:08;16.50;99.90
6520;DHT22;3293;51.690;5.982;2023-07-31T23:26:08;16.50;99.90
6520;DHT22;3293;51.690;5.982;2023-07-31T23:31:08;16.50;99.90
6520;DHT22;3293;51.690;5.982;2023-07-31T23:36:09;16.50;99.90
6520;DHT22;3293;51.690;5.982;2023-07-31T23:41:10;16.50;99.90
6520;DHT22;3293;51.690;5.982;2023-07-31T23:46:10;16.50;99.90
6520;DHT22;3293;51.690;5.982;2023-07-31T23:51:12;16.40;99.90
6520;DHT22;3293;51.690;5.982;2023-07-31T23:56:13;16.30;99.90
